sensor_id;sensor_type;location;lat;lon;timestamp;P1;durP1;ratioP1;P2;durP2;ratioP2
19167;SDS011;9716;53.114;18.040;2023-03-31T00:01:08;5.38;;;3.75;;
19167;SDS011;9716;53.114;18.040;2023-03-31T00:03:36;5.65;;;3.78;;
19167;SDS011;9716;53.114;18.040;2023-03-31T00:06:11;6.88;;;4.10;;
19167;SDS011;9716;53.114;18.040;2023-03-31T00:08:44;6.20;;;4.20;;
19167;SDS011;9716;53.114;18.040;2023-03-31T00:11:20;8.15;;;4.05;;
19167;SDS011;9716;53.114;18.040;2023-03-31T00:13:49;7.28;;;3.67;;
19167;SDS011;9716;53.114;18.040;2023-03-31T00:16:17;6.53;;;3.72;;
19167;SDS011;9716;53.114;18.040;2023-03-31T00:18:46;5.70;;;3.33;;
19167;SDS011;9716;53.114;18.040;2023-03-31T00:21:18;8.38;;;4.30;;
19167;SDS011;9716;53.114;18.040;2023-03-31T00:23:59;8.77;;;4.20;;
19167;SDS011;9716;53.114;18.040;2023-03-31T00:26:31;7.40;;;4.57;;
19167;SDS011;9716;53.114;18.040;2023-03-31T00:29:01;6.75;;;4.03;;
19167;SDS011;9716;53.114;18.040;2023-03-31T00:31:30;6.45;;;4.55;;
19167;SDS011;9716;53.114;18.040;2023-03-31T00:33:59;7.15;;;4.05;;
19167;SDS011;9716;53.114;18.040;2023-03-31T00:36:28;8.07;;;5.47;;
19167;SDS011;9716;53.114;18.040;2023-03-31T00:38:57;11.13;;;4.75;;
19167;SDS011;9716;53.114;18.040;2023-03-31T00:41:26;10.23;;;5.60;;
19167;SDS011;9716;53.114;18.040;2023-03-31T00:44:01;5.85;;;4.30;;
19167;SDS011;9716;53.114;18.040;2023-03-31T00:46:36;7.55;;;4.63;;
19167;SDS011;9716;53.114;18.040;2023-03-31T00:49:10;7.35;;;4.57;;
19167;SDS011;9716;53.114;18.040;2023-03-31T00:51:46;8.98;;;4.97;;
19167;SDS011;9716;53.114;18.040;2023-03-31T00:54:16;7.25;;;4.25;;
19167;SDS011;9716;53.114;18.040;2023-03-31T00:56:47;8.25;;;5.05;;
19167;SDS011;9716;53.114;18.040;2023-03-31T00:59:20;10.48;;;4.75;;
19167;SDS011;9716;53.114;18.040;2023-03-31T01:01:53;9.48;;;4.53;;
19167;SDS011;9716;53.114;18.040;2023-03-31T01:04:24;8.18;;;4.25;;
19167;SDS011;9716;53.114;18.040;2023-03-31T01:06:55;7.60;;;4.72;;
19167;SDS011;9716;53.114;18.040;2023-03-31T01:09:30;8.15;;;5.18;;
19167;SDS011;9716;53.114;18.040;2023-03-31T01:12:01;9.68;;;5.55;;
19167;SDS011;9716;53.114;18.040;2023-03-31T01:14:34;11.23;;;5.60;;
19167;SDS011;9716;53.114;18.040;2023-03-31T01:17:03;7.43;;;4.82;;
19167;SDS011;9716;53.114;18.040;2023-03-31T01:19:41;12.45;;;4.95;;
19167;SDS011;9716;53.114;18.040;2023-03-31T01:22:33;8.15;;;4.72;;
19167;SDS011;9716;53.114;18.040;2023-03-31T01:28:51;10.38;;;4.88;;
19167;SDS011;9716;53.114;18.040;2023-03-31T01:35:01;7.55;;;4.85;;
19167;SDS011;9716;53.114;18.040;2023-03-31T01:37:58;9.73;;;5.10;;
19167;SDS011;9716;53.114;18.040;2023-03-31T01:40:52;11.13;;;5.13;;
19167;SDS011;9716;53.114;18.040;2023-03-31T01:43:40;8.85;;;5.18;;
19167;SDS011;9716;53.114;18.040;2023-03-31T01:46:16;9.60;;;5.15;;
19167;SDS011;9716;53.114;18.040;2023-03-31T01:48:57;8.82;;;4.97;;
19167;SDS011;9716;53.114;18.040;2023-03-31T01:51:35;9.32;;;4.70;;
19167;SDS011;9716;53.114;18.040;2023-03-31T01:54:14;12.50;;;5.50;;
19167;SDS011;9716;53.114;18.040;2023-03-31T01:56:50;11.40;;;5.65;;
19167;SDS011;9716;53.114;18.040;2023-03-31T01:59:25;10.43;;;5.00;;
19167;SDS011;9716;53.114;18.040;2023-03-31T02:01:57;8.90;;;4.88;;
19167;SDS011;9716;53.114;18.040;2023-03-31T02:04:30;10.82;;;5.50;;
19167;SDS011;9716;53.114;18.040;2023-03-31T02:07:06;13.38;;;5.82;;
19167;SDS011;9716;53.114;18.040;2023-03-31T02:09:41;11.20;;;5.07;;
19167;SDS011;9716;53.114;18.040;2023-03-31T02:12:14;10.30;;;5.65;;
19167;SDS011;9716;53.114;18.040;2023-03-31T02:14:46;12.48;;;5.10;;
19167;SDS011;9716;53.114;18.040;2023-03-31T02:17:17;10.48;;;4.90;;
19167;SDS011;9716;53.114;18.040;2023-03-31T02:19:56;11.25;;;5.72;;
19167;SDS011;9716;53.114;18.040;2023-03-31T02:22:30;10.32;;;5.28;;
19167;SDS011;9716;53.114;18.040;2023-03-31T02:25:02;10.68;;;5.30;;
19167;SDS011;9716;53.114;18.040;2023-03-31T02:27:35;9.38;;;5.15;;
19167;SDS011;9716;53.114;18.040;2023-03-31T02:30:07;10.55;;;5.40;;
19167;SDS011;9716;53.114;18.040;2023-03-31T02:32:38;9.02;;;5.15;;
19167;SDS011;9716;53.114;18.040;2023-03-31T02:35:09;13.10;;;5.00;;
19167;SDS011;9716;53.114;18.040;2023-03-31T02:37:40;12.60;;;5.50;;
19167;SDS011;9716;53.114;18.040;2023-03-31T02:40:10;18.73;;;5.65;;
19167;SDS011;9716;53.114;18.040;2023-03-31T02:42:44;10.38;;;5.00;;
19167;SDS011;9716;53.114;18.040;2023-03-31T02:48:04;7.65;;;4.68;;
19167;SDS011;9716;53.114;18.040;2023-03-31T02:50:37;9.65;;;4.68;;
19167;SDS011;9716;53.114;18.040;2023-03-31T02:53:29;9.23;;;5.13;;
19167;SDS011;9716;53.114;18.040;2023-03-31T02:56:10;8.80;;;4.70;;
19167;SDS011;9716;53.114;18.040;2023-03-31T02:58:56;14.55;;;4.90;;
19167;SDS011;9716;53.114;18.040;2023-03-31T03:01:40;8.98;;;4.80;;
19167;SDS011;9716;53.114;18.040;2023-03-31T03:04:22;8.35;;;4.30;;
19167;SDS011;9716;53.114;18.040;2023-03-31T03:07:06;17.27;;;5.07;;
19167;SDS011;9716;53.114;18.040;2023-03-31T03:09:42;14.00;;;4.95;;
19167;SDS011;9716;53.114;18.040;2023-03-31T03:12:20;11.43;;;4.88;;
19167;SDS011;9716;53.114;18.040;2023-03-31T03:14:54;7.22;;;3.55;;
19167;SDS011;9716;53.114;18.040;2023-03-31T03:17:27;15.13;;;4.95;;
19167;SDS011;9716;53.114;18.040;2023-03-31T03:20:00;6.97;;;4.18;;
19167;SDS011;9716;53.114;18.040;2023-03-31T03:22:33;12.57;;;4.18;;
19167;SDS011;9716;53.114;18.040;2023-03-31T03:25:03;6.43;;;3.60;;
19167;SDS011;9716;53.114;18.040;2023-03-31T03:27:32;6.50;;;3.67;;
19167;SDS011;9716;53.114;18.040;2023-03-31T03:30:03;7.15;;;4.25;;
19167;SDS011;9716;53.114;18.040;2023-03-31T03:32:32;8.35;;;3.78;;
19167;SDS011;9716;53.114;18.040;2023-03-31T03:35:02;8.52;;;3.85;;
19167;SDS011;9716;53.114;18.040;2023-03-31T03:37:31;10.15;;;4.40;;
19167;SDS011;9716;53.114;18.040;2023-03-31T03:40:00;5.50;;;3.17;;
19167;SDS011;9716;53.114;18.040;2023-03-31T03:42:32;4.93;;;3.28;;
19167;SDS011;9716;53.114;18.040;2023-03-31T03:45:01;4.10;;;3.00;;
19167;SDS011;9716;53.114;18.040;2023-03-31T03:47:31;8.30;;;3.50;;
19167;SDS011;9716;53.114;18.040;2023-03-31T03:50:00;5.25;;;3.13;;
19167;SDS011;9716;53.114;18.040;2023-03-31T03:52:28;9.65;;;3.20;;
19167;SDS011;9716;53.114;18.040;2023-03-31T03:54:56;4.05;;;3.25;;
19167;SDS011;9716;53.114;18.040;2023-03-31T03:57:25;6.00;;;2.65;;
19167;SDS011;9716;53.114;18.040;2023-03-31T03:59:53;11.10;;;3.08;;
19167;SDS011;9716;53.114;18.040;2023-03-31T04:02:23;6.03;;;3.55;;
19167;SDS011;9716;53.114;18.040;2023-03-31T04:04:54;6.25;;;3.05;;
19167;SDS011;9716;53.114;18.040;2023-03-31T04:07:23;4.13;;;2.53;;
19167;SDS011;9716;53.114;18.040;2023-03-31T04:09:52;3.53;;;2.28;;
19167;SDS011;9716;53.114;18.040;2023-03-31T04:12:21;6.47;;;2.63;;
19167;SDS011;9716;53.114;18.040;2023-03-31T04:14:49;10.23;;;2.88;;
19167;SDS011;9716;53.114;18.040;2023-03-31T04:17:17;3.92;;;2.78;;
19167;SDS011;9716;53.114;18.040;2023-03-31T04:20:00;3.70;;;2.53;;
19167;SDS011;9716;53.114;18.040;2023-03-31T04:22:34;6.25;;;2.38;;
19167;SDS011;9716;53.114;18.040;2023-03-31T04:25:07;7.10;;;3.33;;
19167;SDS011;9716;53.114;18.040;2023-03-31T04:27:40;8.60;;;3.35;;
19167;SDS011;9716;53.114;18.040;2023-03-31T04:30:13;2.70;;;2.15;;
19167;SDS011;9716;53.114;18.040;2023-03-31T04:32:49;5.63;;;2.63;;
19167;SDS011;9716;53.114;18.040;2023-03-31T04:35:21;5.65;;;3.00;;
19167;SDS011;9716;53.114;18.040;2023-03-31T04:37:51;5.53;;;3.05;;
19167;SDS011;9716;53.114;18.040;2023-03-31T04:40:25;9.65;;;3.72;;
19167;SDS011;9716;53.114;18.040;2023-03-31T04:42:53;5.57;;;3.22;;
19167;SDS011;9716;53.114;18.040;2023-03-31T04:45:22;7.50;;;2.85;;
19167;SDS011;9716;53.114;18.040;2023-03-31T04:47:50;5.75;;;3.03;;
19167;SDS011;9716;53.114;18.040;2023-03-31T04:50:20;5.22;;;3.42;;
19167;SDS011;9716;53.114;18.040;2023-03-31T04:52:48;5.38;;;2.92;;
19167;SDS011;9716;53.114;18.040;2023-03-31T04:55:17;5.25;;;3.53;;
19167;SDS011;9716;53.114;18.040;2023-03-31T04:57:46;6.18;;;3.20;;
19167;SDS011;9716;53.114;18.040;2023-03-31T05:00:15;8.70;;;3.42;;
19167;SDS011;9716;53.114;18.040;2023-03-31T05:02:44;6.53;;;3.70;;
19167;SDS011;9716;53.114;18.040;2023-03-31T05:05:13;6.38;;;3.75;;
19167;SDS011;9716;53.114;18.040;2023-03-31T05:07:43;4.72;;;3.75;;
19167;SDS011;9716;53.114;18.040;2023-03-31T05:10:11;6.53;;;3.30;;
19167;SDS011;9716;53.114;18.040;2023-03-31T05:12:40;8.00;;;3.72;;
19167;SDS011;9716;53.114;18.040;2023-03-31T05:15:09;7.60;;;3.00;;
19167;SDS011;9716;53.114;18.040;2023-03-31T05:17:37;11.48;;;3.45;;
19167;SDS011;9716;53.114;18.040;2023-03-31T05:20:07;4.95;;;3.40;;
19167;SDS011;9716;53.114;18.040;2023-03-31T05:22:36;7.70;;;3.88;;
19167;SDS011;9716;53.114;18.040;2023-03-31T05:25:11;7.78;;;3.40;;
19167;SDS011;9716;53.114;18.040;2023-03-31T05:27:45;4.32;;;3.58;;
19167;SDS011;9716;53.114;18.040;2023-03-31T05:30:14;4.88;;;3.38;;
19167;SDS011;9716;53.114;18.040;2023-03-31T05:32:43;6.45;;;3.15;;
19167;SDS011;9716;53.114;18.040;2023-03-31T05:35:11;8.05;;;3.88;;
19167;SDS011;9716;53.114;18.040;2023-03-31T05:37:40;5.85;;;3.42;;
19167;SDS011;9716;53.114;18.040;2023-03-31T05:40:09;7.95;;;3.45;;
19167;SDS011;9716;53.114;18.040;2023-03-31T05:42:39;8.55;;;2.90;;
19167;SDS011;9716;53.114;18.040;2023-03-31T05:45:07;5.55;;;3.53;;
19167;SDS011;9716;53.114;18.040;2023-03-31T05:47:36;14.13;;;3.60;;
19167;SDS011;9716;53.114;18.040;2023-03-31T05:50:05;6.55;;;3.40;;
19167;SDS011;9716;53.114;18.040;2023-03-31T05:52:35;6.20;;;3.60;;
19167;SDS011;9716;53.114;18.040;2023-03-31T05:55:03;7.50;;;3.55;;
19167;SDS011;9716;53.114;18.040;2023-03-31T05:57:34;7.07;;;3.65;;
19167;SDS011;9716;53.114;18.040;2023-03-31T06:00:03;10.18;;;4.10;;
19167;SDS011;9716;53.114;18.040;2023-03-31T06:02:34;11.30;;;3.85;;
19167;SDS011;9716;53.114;18.040;2023-03-31T06:05:04;7.72;;;3.53;;
19167;SDS011;9716;53.114;18.040;2023-03-31T06:07:32;6.68;;;3.22;;
19167;SDS011;9716;53.114;18.040;2023-03-31T06:10:01;5.57;;;2.83;;
19167;SDS011;9716;53.114;18.040;2023-03-31T06:12:30;6.40;;;3.78;;
19167;SDS011;9716;53.114;18.040;2023-03-31T06:15:01;5.57;;;3.90;;
19167;SDS011;9716;53.114;18.040;2023-03-31T06:17:29;5.40;;;2.78;;
19167;SDS011;9716;53.114;18.040;2023-03-31T06:19:58;6.82;;;3.78;;
19167;SDS011;9716;53.114;18.040;2023-03-31T06:22:31;7.32;;;3.88;;
19167;SDS011;9716;53.114;18.040;2023-03-31T06:24:59;8.48;;;3.33;;
19167;SDS011;9716;53.114;18.040;2023-03-31T06:27:28;4.05;;;2.92;;
19167;SDS011;9716;53.114;18.040;2023-03-31T06:29:56;6.15;;;3.83;;
19167;SDS011;9716;53.114;18.040;2023-03-31T06:32:26;6.43;;;3.58;;
19167;SDS011;9716;53.114;18.040;2023-03-31T06:34:54;6.93;;;3.53;;
19167;SDS011;9716;53.114;18.040;2023-03-31T06:37:23;5.38;;;3.08;;
19167;SDS011;9716;53.114;18.040;2023-03-31T06:39:51;5.25;;;3.35;;
19167;SDS011;9716;53.114;18.040;2023-03-31T06:42:19;5.47;;;3.05;;
19167;SDS011;9716;53.114;18.040;2023-03-31T06:44:48;12.43;;;3.35;;
19167;SDS011;9716;53.114;18.040;2023-03-31T06:47:16;4.82;;;2.85;;
19167;SDS011;9716;53.114;18.040;2023-03-31T06:49:46;8.40;;;3.22;;
19167;SDS011;9716;53.114;18.040;2023-03-31T06:52:15;4.95;;;2.97;;
19167;SDS011;9716;53.114;18.040;2023-03-31T06:54:43;3.30;;;2.90;;
19167;SDS011;9716;53.114;18.040;2023-03-31T06:57:12;7.05;;;2.95;;
19167;SDS011;9716;53.114;18.040;2023-03-31T06:59:40;6.85;;;3.35;;
19167;SDS011;9716;53.114;18.040;2023-03-31T07:02:09;4.00;;;2.83;;
19167;SDS011;9716;53.114;18.040;2023-03-31T07:04:38;6.05;;;2.95;;
19167;SDS011;9716;53.114;18.040;2023-03-31T07:07:07;9.25;;;3.47;;
19167;SDS011;9716;53.114;18.040;2023-03-31T07:09:36;6.10;;;3.15;;
19167;SDS011;9716;53.114;18.040;2023-03-31T07:12:05;7.03;;;2.70;;
19167;SDS011;9716;53.114;18.040;2023-03-31T07:14:33;4.18;;;2.63;;
19167;SDS011;9716;53.114;18.040;2023-03-31T07:17:01;5.32;;;2.63;;
19167;SDS011;9716;53.114;18.040;2023-03-31T07:19:30;4.40;;;2.70;;
19167;SDS011;9716;53.114;18.040;2023-03-31T07:21:59;7.25;;;3.38;;
19167;SDS011;9716;53.114;18.040;2023-03-31T07:24:28;5.47;;;2.50;;
19167;SDS011;9716;53.114;18.040;2023-03-31T07:26:57;9.70;;;3.05;;
19167;SDS011;9716;53.114;18.040;2023-03-31T07:29:25;5.25;;;2.85;;
19167;SDS011;9716;53.114;18.040;2023-03-31T07:31:54;3.90;;;2.40;;
19167;SDS011;9716;53.114;18.040;2023-03-31T07:34:22;7.65;;;2.40;;
19167;SDS011;9716;53.114;18.040;2023-03-31T07:36:53;5.57;;;2.90;;
19167;SDS011;9716;53.114;18.040;2023-03-31T07:39:22;6.50;;;3.08;;
19167;SDS011;9716;53.114;18.040;2023-03-31T07:41:51;4.95;;;2.88;;
19167;SDS011;9716;53.114;18.040;2023-03-31T07:44:20;3.78;;;2.28;;
19167;SDS011;9716;53.114;18.040;2023-03-31T07:46:48;5.18;;;2.88;;
19167;SDS011;9716;53.114;18.040;2023-03-31T07:49:17;6.05;;;3.15;;
19167;SDS011;9716;53.114;18.040;2023-03-31T07:51:45;10.02;;;2.70;;
19167;SDS011;9716;53.114;18.040;2023-03-31T07:54:14;3.22;;;2.30;;
19167;SDS011;9716;53.114;18.040;2023-03-31T07:56:42;11.77;;;2.33;;
19167;SDS011;9716;53.114;18.040;2023-03-31T07:59:12;3.35;;;2.20;;
19167;SDS011;9716;53.114;18.040;2023-03-31T08:01:41;6.97;;;2.65;;
19167;SDS011;9716;53.114;18.040;2023-03-31T08:04:09;2.88;;;2.58;;
19167;SDS011;9716;53.114;18.040;2023-03-31T08:06:38;3.80;;;2.50;;
19167;SDS011;9716;53.114;18.040;2023-03-31T08:09:07;4.55;;;2.67;;
19167;SDS011;9716;53.114;18.040;2023-03-31T08:11:35;3.90;;;2.05;;
19167;SDS011;9716;53.114;18.040;2023-03-31T08:14:04;3.60;;;2.35;;
19167;SDS011;9716;53.114;18.040;2023-03-31T08:16:34;3.60;;;2.30;;
19167;SDS011;9716;53.114;18.040;2023-03-31T08:19:02;4.07;;;2.53;;
19167;SDS011;9716;53.114;18.040;2023-03-31T08:21:30;4.28;;;2.42;;
19167;SDS011;9716;53.114;18.040;2023-03-31T08:23:59;4.47;;;2.33;;
19167;SDS011;9716;53.114;18.040;2023-03-31T08:26:28;3.50;;;2.22;;
19167;SDS011;9716;53.114;18.040;2023-03-31T08:28:57;13.30;;;2.95;;
19167;SDS011;9716;53.114;18.040;2023-03-31T08:31:26;4.55;;;1.95;;
19167;SDS011;9716;53.114;18.040;2023-03-31T08:33:57;4.80;;;2.38;;
19167;SDS011;9716;53.114;18.040;2023-03-31T08:36:25;4.88;;;2.30;;
19167;SDS011;9716;53.114;18.040;2023-03-31T08:38:54;2.40;;;2.00;;
19167;SDS011;9716;53.114;18.040;2023-03-31T08:41:26;2.15;;;1.83;;
19167;SDS011;9716;53.114;18.040;2023-03-31T08:44:04;3.83;;;2.50;;
19167;SDS011;9716;53.114;18.040;2023-03-31T08:46:36;4.90;;;2.60;;
19167;SDS011;9716;53.114;18.040;2023-03-31T08:49:08;3.10;;;2.40;;
19167;SDS011;9716;53.114;18.040;2023-03-31T08:51:43;5.28;;;1.92;;
19167;SDS011;9716;53.114;18.040;2023-03-31T08:54:15;9.65;;;2.10;;
19167;SDS011;9716;53.114;18.040;2023-03-31T08:56:47;3.08;;;2.10;;
19167;SDS011;9716;53.114;18.040;2023-03-31T08:59:20;3.78;;;2.47;;
19167;SDS011;9716;53.114;18.040;2023-03-31T09:01:55;4.80;;;2.00;;
19167;SDS011;9716;53.114;18.040;2023-03-31T09:04:37;2.75;;;2.00;;
19167;SDS011;9716;53.114;18.040;2023-03-31T09:07:18;9.25;;;2.30;;
19167;SDS011;9716;53.114;18.040;2023-03-31T09:09:57;3.50;;;2.25;;
19167;SDS011;9716;53.114;18.040;2023-03-31T09:12:31;3.20;;;2.05;;
19167;SDS011;9716;53.114;18.040;2023-03-31T09:15:07;5.35;;;2.55;;
19167;SDS011;9716;53.114;18.040;2023-03-31T09:17:42;4.60;;;2.03;;
19167;SDS011;9716;53.114;18.040;2023-03-31T09:20:14;2.97;;;1.80;;
19167;SDS011;9716;53.114;18.040;2023-03-31T09:22:47;7.10;;;2.90;;
19167;SDS011;9716;53.114;18.040;2023-03-31T09:25:19;7.68;;;2.65;;
19167;SDS011;9716;53.114;18.040;2023-03-31T09:27:52;6.18;;;2.65;;
19167;SDS011;9716;53.114;18.040;2023-03-31T09:30:25;6.18;;;2.15;;
19167;SDS011;9716;53.114;18.040;2023-03-31T09:32:57;6.20;;;2.45;;
19167;SDS011;9716;53.114;18.040;2023-03-31T09:35:39;6.80;;;2.38;;
19167;SDS011;9716;53.114;18.040;2023-03-31T09:38:11;4.15;;;2.17;;
19167;SDS011;9716;53.114;18.040;2023-03-31T09:40:41;6.65;;;2.25;;
19167;SDS011;9716;53.114;18.040;2023-03-31T09:43:14;5.43;;;2.13;;
19167;SDS011;9716;53.114;18.040;2023-03-31T09:45:49;3.65;;;1.90;;
19167;SDS011;9716;53.114;18.040;2023-03-31T09:48:38;8.35;;;2.38;;
19167;SDS011;9716;53.114;18.040;2023-03-31T09:51:15;2.97;;;1.73;;
19167;SDS011;9716;53.114;18.040;2023-03-31T09:53:47;5.38;;;2.25;;
19167;SDS011;9716;53.114;18.040;2023-03-31T09:59:20;6.00;;;1.80;;
19167;SDS011;9716;53.114;18.040;2023-03-31T10:01:50;6.05;;;2.30;;
19167;SDS011;9716;53.114;18.040;2023-03-31T10:04:25;6.40;;;2.50;;
19167;SDS011;9716;53.114;18.040;2023-03-31T10:06:59;3.30;;;1.85;;
19167;SDS011;9716;53.114;18.040;2023-03-31T10:09:31;6.82;;;2.10;;
19167;SDS011;9716;53.114;18.040;2023-03-31T10:12:02;3.60;;;1.88;;
19167;SDS011;9716;53.114;18.040;2023-03-31T10:14:37;9.30;;;2.50;;
19167;SDS011;9716;53.114;18.040;2023-03-31T10:17:11;3.70;;;1.75;;
19167;SDS011;9716;53.114;18.040;2023-03-31T10:19:46;11.23;;;1.75;;
19167;SDS011;9716;53.114;18.040;2023-03-31T10:22:27;3.38;;;1.65;;
19167;SDS011;9716;53.114;18.040;2023-03-31T10:25:06;4.18;;;2.03;;
19167;SDS011;9716;53.114;18.040;2023-03-31T10:27:38;3.45;;;1.83;;
19167;SDS011;9716;53.114;18.040;2023-03-31T10:30:08;4.25;;;1.83;;
19167;SDS011;9716;53.114;18.040;2023-03-31T10:32:40;9.13;;;2.10;;
19167;SDS011;9716;53.114;18.040;2023-03-31T10:35:12;9.05;;;2.40;;
19167;SDS011;9716;53.114;18.040;2023-03-31T10:37:55;6.90;;;2.40;;
19167;SDS011;9716;53.114;18.040;2023-03-31T10:40:27;5.18;;;2.67;;
19167;SDS011;9716;53.114;18.040;2023-03-31T10:42:58;3.22;;;1.77;;
19167;SDS011;9716;53.114;18.040;2023-03-31T10:45:30;9.23;;;2.13;;
19167;SDS011;9716;53.114;18.040;2023-03-31T10:48:08;2.95;;;1.55;;
19167;SDS011;9716;53.114;18.040;2023-03-31T10:50:44;4.47;;;1.95;;
19167;SDS011;9716;53.114;18.040;2023-03-31T10:53:16;8.15;;;2.47;;
19167;SDS011;9716;53.114;18.040;2023-03-31T10:55:48;2.90;;;1.92;;
19167;SDS011;9716;53.114;18.040;2023-03-31T10:58:39;11.13;;;2.85;;
19167;SDS011;9716;53.114;18.040;2023-03-31T11:01:34;5.57;;;1.70;;
19167;SDS011;9716;53.114;18.040;2023-03-31T11:04:33;5.60;;;2.00;;
19167;SDS011;9716;53.114;18.040;2023-03-31T11:07:16;3.25;;;2.33;;
19167;SDS011;9716;53.114;18.040;2023-03-31T11:10:00;6.70;;;1.60;;
19167;SDS011;9716;53.114;18.040;2023-03-31T11:12:38;8.25;;;2.08;;
19167;SDS011;9716;53.114;18.040;2023-03-31T11:15:17;3.45;;;2.00;;
19167;SDS011;9716;53.114;18.040;2023-03-31T11:17:53;3.20;;;1.80;;
19167;SDS011;9716;53.114;18.040;2023-03-31T11:20:32;4.18;;;2.10;;
19167;SDS011;9716;53.114;18.040;2023-03-31T11:23:06;3.97;;;1.88;;
19167;SDS011;9716;53.114;18.040;2023-03-31T11:25:45;2.88;;;1.77;;
19167;SDS011;9716;53.114;18.040;2023-03-31T11:28:24;4.03;;;1.80;;
19167;SDS011;9716;53.114;18.040;2023-03-31T11:31:05;4.35;;;1.98;;
19167;SDS011;9716;53.114;18.040;2023-03-31T11:33:45;4.90;;;1.38;;
19167;SDS011;9716;53.114;18.040;2023-03-31T11:36:27;3.13;;;1.90;;
19167;SDS011;9716;53.114;18.040;2023-03-31T11:39:15;4.35;;;1.95;;
19167;SDS011;9716;53.114;18.040;2023-03-31T11:41:58;2.17;;;1.77;;
19167;SDS011;9716;53.114;18.040;2023-03-31T11:44:33;2.88;;;1.65;;
19167;SDS011;9716;53.114;18.040;2023-03-31T11:47:07;2.00;;;1.80;;
19167;SDS011;9716;53.114;18.040;2023-03-31T11:49:40;2.78;;;1.35;;
19167;SDS011;9716;53.114;18.040;2023-03-31T11:52:14;1.73;;;1.58;;
19167;SDS011;9716;53.114;18.040;2023-03-31T11:54:46;3.83;;;2.13;;
19167;SDS011;9716;53.114;18.040;2023-03-31T11:57:22;2.42;;;1.67;;
19167;SDS011;9716;53.114;18.040;2023-03-31T11:59:57;4.45;;;1.67;;
19167;SDS011;9716;53.114;18.040;2023-03-31T12:02:38;5.15;;;2.05;;
19167;SDS011;9716;53.114;18.040;2023-03-31T12:05:12;6.88;;;2.05;;
19167;SDS011;9716;53.114;18.040;2023-03-31T12:07:42;6.90;;;2.08;;
19167;SDS011;9716;53.114;18.040;2023-03-31T12:10:19;6.28;;;2.00;;
19167;SDS011;9716;53.114;18.040;2023-03-31T12:12:51;4.88;;;1.77;;
19167;SDS011;9716;53.114;18.040;2023-03-31T12:15:26;6.15;;;1.90;;
19167;SDS011;9716;53.114;18.040;2023-03-31T12:17:59;5.57;;;1.85;;
19167;SDS011;9716;53.114;18.040;2023-03-31T12:20:36;3.00;;;1.58;;
19167;SDS011;9716;53.114;18.040;2023-03-31T12:23:10;4.22;;;1.90;;
19167;SDS011;9716;53.114;18.040;2023-03-31T12:25:43;4.68;;;1.95;;
19167;SDS011;9716;53.114;18.040;2023-03-31T12:28:19;7.22;;;2.05;;
19167;SDS011;9716;53.114;18.040;2023-03-31T12:30:48;2.40;;;1.35;;
19167;SDS011;9716;53.114;18.040;2023-03-31T12:33:21;3.35;;;1.50;;
19167;SDS011;9716;53.114;18.040;2023-03-31T12:35:56;3.40;;;1.80;;
19167;SDS011;9716;53.114;18.040;2023-03-31T12:38:41;4.18;;;1.92;;
19167;SDS011;9716;53.114;18.040;2023-03-31T12:41:22;4.75;;;1.85;;
19167;SDS011;9716;53.114;18.040;2023-03-31T12:44:03;8.85;;;2.38;;
19167;SDS011;9716;53.114;18.040;2023-03-31T12:46:56;6.30;;;2.20;;
19167;SDS011;9716;53.114;18.040;2023-03-31T12:49:55;6.97;;;1.67;;
19167;SDS011;9716;53.114;18.040;2023-03-31T12:52:31;2.00;;;1.30;;
19167;SDS011;9716;53.114;18.040;2023-03-31T12:55:15;1.98;;;1.45;;
19167;SDS011;9716;53.114;18.040;2023-03-31T13:01:10;2.25;;;1.40;;
19167;SDS011;9716;53.114;18.040;2023-03-31T13:03:50;5.13;;;1.45;;
19167;SDS011;9716;53.114;18.040;2023-03-31T13:09:42;4.55;;;2.05;;
19167;SDS011;9716;53.114;18.040;2023-03-31T13:12:19;1.73;;;1.55;;
19167;SDS011;9716;53.114;18.040;2023-03-31T13:14:49;10.70;;;1.88;;
19167;SDS011;9716;53.114;18.040;2023-03-31T13:17:23;4.70;;;2.20;;
19167;SDS011;9716;53.114;18.040;2023-03-31T13:19:54;3.78;;;1.45;;
19167;SDS011;9716;53.114;18.040;2023-03-31T13:22:28;4.93;;;2.25;;
19167;SDS011;9716;53.114;18.040;2023-03-31T13:28:25;8.30;;;1.80;;
19167;SDS011;9716;53.114;18.040;2023-03-31T13:31:00;3.50;;;2.00;;
19167;SDS011;9716;53.114;18.040;2023-03-31T13:33:33;4.05;;;2.58;;
19167;SDS011;9716;53.114;18.040;2023-03-31T13:42:33;2.97;;;2.30;;
19167;SDS011;9716;53.114;18.040;2023-03-31T13:45:21;2.33;;;1.77;;
19167;SDS011;9716;53.114;18.040;2023-03-31T13:48:02;5.18;;;2.03;;
19167;SDS011;9716;53.114;18.040;2023-03-31T13:50:48;10.50;;;2.90;;
19167;SDS011;9716;53.114;18.040;2023-03-31T13:53:29;2.50;;;2.05;;
19167;SDS011;9716;53.114;18.040;2023-03-31T13:59:28;6.35;;;2.42;;
19167;SDS011;9716;53.114;18.040;2023-03-31T14:05:22;4.75;;;2.00;;
19167;SDS011;9716;53.114;18.040;2023-03-31T14:07:57;7.18;;;2.50;;
19167;SDS011;9716;53.114;18.040;2023-03-31T14:10:30;2.25;;;1.90;;
19167;SDS011;9716;53.114;18.040;2023-03-31T14:13:04;6.18;;;2.35;;
19167;SDS011;9716;53.114;18.040;2023-03-31T14:15:37;6.88;;;2.40;;
19167;SDS011;9716;53.114;18.040;2023-03-31T14:18:09;5.90;;;2.33;;
19167;SDS011;9716;53.114;18.040;2023-03-31T14:20:57;3.65;;;2.13;;
19167;SDS011;9716;53.114;18.040;2023-03-31T14:23:38;7.22;;;2.50;;
19167;SDS011;9716;53.114;18.040;2023-03-31T14:26:16;11.48;;;2.13;;
19167;SDS011;9716;53.114;18.040;2023-03-31T14:28:59;3.25;;;2.63;;
19167;SDS011;9716;53.114;18.040;2023-03-31T14:31:37;4.43;;;2.45;;
19167;SDS011;9716;53.114;18.040;2023-03-31T14:34:15;2.97;;;2.15;;
19167;SDS011;9716;53.114;18.040;2023-03-31T14:36:57;5.07;;;2.08;;
19167;SDS011;9716;53.114;18.040;2023-03-31T14:39:29;3.55;;;2.17;;
19167;SDS011;9716;53.114;18.040;2023-03-31T14:42:02;3.05;;;2.15;;
19167;SDS011;9716;53.114;18.040;2023-03-31T14:44:32;4.82;;;2.58;;
19167;SDS011;9716;53.114;18.040;2023-03-31T14:47:01;9.57;;;2.78;;
19167;SDS011;9716;53.114;18.040;2023-03-31T14:49:33;4.00;;;1.77;;
19167;SDS011;9716;53.114;18.040;2023-03-31T14:52:10;5.72;;;1.80;;
19167;SDS011;9716;53.114;18.040;2023-03-31T14:54:44;5.00;;;1.63;;
19167;SDS011;9716;53.114;18.040;2023-03-31T14:57:15;2.20;;;1.98;;
19167;SDS011;9716;53.114;18.040;2023-03-31T14:59:47;3.85;;;2.38;;
19167;SDS011;9716;53.114;18.040;2023-03-31T15:02:19;3.10;;;2.00;;
19167;SDS011;9716;53.114;18.040;2023-03-31T15:04:59;3.50;;;2.50;;
19167;SDS011;9716;53.114;18.040;2023-03-31T15:07:31;3.95;;;2.50;;
19167;SDS011;9716;53.114;18.040;2023-03-31T15:10:01;8.18;;;2.83;;
19167;SDS011;9716;53.114;18.040;2023-03-31T15:12:30;5.43;;;1.92;;
19167;SDS011;9716;53.114;18.040;2023-03-31T15:15:00;5.45;;;2.75;;
19167;SDS011;9716;53.114;18.040;2023-03-31T15:17:35;5.28;;;2.58;;
19167;SDS011;9716;53.114;18.040;2023-03-31T15:20:25;5.22;;;2.28;;
19167;SDS011;9716;53.114;18.040;2023-03-31T15:22:57;2.65;;;1.90;;
19167;SDS011;9716;53.114;18.040;2023-03-31T15:25:29;9.82;;;2.60;;
19167;SDS011;9716;53.114;18.040;2023-03-31T15:28:03;3.22;;;2.42;;
19167;SDS011;9716;53.114;18.040;2023-03-31T15:30:34;4.60;;;2.60;;
19167;SDS011;9716;53.114;18.040;2023-03-31T15:33:04;4.60;;;2.40;;
19167;SDS011;9716;53.114;18.040;2023-03-31T15:35:45;6.80;;;2.97;;
19167;SDS011;9716;53.114;18.040;2023-03-31T15:38:14;3.05;;;2.00;;
19167;SDS011;9716;53.114;18.040;2023-03-31T15:40:47;5.82;;;2.20;;
19167;SDS011;9716;53.114;18.040;2023-03-31T15:43:26;5.65;;;2.20;;
19167;SDS011;9716;53.114;18.040;2023-03-31T15:45:56;4.60;;;2.00;;
19167;SDS011;9716;53.114;18.040;2023-03-31T15:48:27;1.77;;;1.58;;
19167;SDS011;9716;53.114;18.040;2023-03-31T15:50:59;3.60;;;2.22;;
19167;SDS011;9716;53.114;18.040;2023-03-31T15:53:30;4.80;;;1.85;;
19167;SDS011;9716;53.114;18.040;2023-03-31T15:56:04;2.25;;;1.92;;
19167;SDS011;9716;53.114;18.040;2023-03-31T16:01:22;3.35;;;1.88;;